Pagrindinis puslapis
METAR-TAF:

METAR-TAF

Oro uostai :

Fort Bliss, Teksasas, Jungtinės Amerikos Valstijos

platuma: 31-50-58N, ilguma: 106-22-48W, Aukštis: 1203 m

Dabartinis oras

Ataskaita buvo paskelbta 31 minutes, ne 09:58 UTC
Vėjas 7 kt iš Šiaurės/Šiaurės Vakarų
Temperatūra 10°C
Drėgmė 27%
Slėgis 1020 hPa
Matomumas: 16.1 km
Giedras dangus

METAR: KBIF 280958Z AUTO 33007KT 10SM CLR 10/M08 A3013 RMK AO2 SLP164 T00971085 $

Laikas: 04:29 (10:29 UTC)

Prognozė

Ataskaita buvo paskelbta 4 valandos ir 29 minutes, ne 06:00 UTC
Prognozė galioja nuo 28 metu 06 UTC su 29 metu 12 UTC
Vėjas 6 kt nuo kintamojo kryptimis
Matomumas 10 km arba daugiau
Giedras dangus
Tapsmas
nuo 28 metu 19 UTC su 28 metu 20 UTC
Vėjas 9 kt iš Šiaurės Vakarų
Matomumas 10 km arba daugiau
Giedras dangus
Tapsmas
nuo 29 metu 01 UTC su 29 metu 02 UTC
Vėjas 6 kt nuo kintamojo kryptimis
Matomumas 10 km arba daugiau
Giedras dangus

TAF: KBIF 280600Z 2806/2912 VRB06KT 9999 SKC QNH3005INS BECMG 2819/2820 32009KT 9999 SKC QNH3011INS BECMG 2901/2902 VRB06KT 9999 SKC QNH3013INS TX24/2821Z TN10/2812Z

Orai ataskaitas ir orų prognozės (METAR, TAF).

turimą stotys yra geltonos ir raudonos taškus žemėlapyje.

Perkelti pele per norėdami pamatyti stoties vardą.

Tada spustelėkite, norėdami matyti oro stebėjimo ir prognozės.

Norėdami pakeisti žemėlapį: spustelėkite ant žalios mygtukų su juodo kryžiaus žemyn,; žalią mygtuką su brūkšneliu, jei norite nutolinti; arba žalių rodyklių gretimoms žemėlapius.


METAR-TAF: